sensor_id;sensor_type;location;lat;lon;timestamp;P1;durP1;ratioP1;P2;durP2;ratioP2
74945;SDS011;63509;45.250;38.102;2023-09-19T00:01:42;15.93;;;4.93;;
74945;SDS011;63509;45.250;38.102;2023-09-19T00:04:12;7.78;;;3.85;;
74945;SDS011;63509;45.250;38.102;2023-09-19T00:06:40;8.48;;;4.15;;
74945;SDS011;63509;45.250;38.102;2023-09-19T00:09:06;8.02;;;4.20;;
74945;SDS011;63509;45.250;38.102;2023-09-19T00:11:36;9.32;;;4.25;;
74945;SDS011;63509;45.250;38.102;2023-09-19T00:14:03;6.80;;;4.15;;
74945;SDS011;63509;45.250;38.102;2023-09-19T00:16:34;7.65;;;3.97;;
74945;SDS011;63509;45.250;38.102;2023-09-19T00:19:01;8.00;;;4.70;;
74945;SDS011;63509;45.250;38.102;2023-09-19T00:21:30;7.60;;;3.60;;
74945;SDS011;63509;45.250;38.102;2023-09-19T00:23:57;6.43;;;3.67;;
74945;SDS011;63509;45.250;38.102;2023-09-19T00:26:23;9.05;;;4.38;;
74945;SDS011;63509;45.250;38.102;2023-09-19T00:28:52;10.90;;;4.60;;
74945;SDS011;63509;45.250;38.102;2023-09-19T00:31:18;9.43;;;4.05;;
74945;SDS011;63509;45.250;38.102;2023-09-19T00:33:44;12.98;;;4.35;;
74945;SDS011;63509;45.250;38.102;2023-09-19T00:36:11;9.57;;;5.00;;
74945;SDS011;63509;45.250;38.102;2023-09-19T00:38:37;7.28;;;4.28;;
74945;SDS011;63509;45.250;38.102;2023-09-19T00:41:03;7.63;;;4.72;;
74945;SDS011;63509;45.250;38.102;2023-09-19T00:43:30;8.15;;;4.32;;
74945;SDS011;63509;45.250;38.102;2023-09-19T00:45:59;6.75;;;4.07;;
74945;SDS011;63509;45.250;38.102;2023-09-19T00:48:29;8.02;;;3.80;;
74945;SDS011;63509;45.250;38.102;2023-09-19T00:50:57;10.50;;;4.13;;
74945;SDS011;63509;45.250;38.102;2023-09-19T00:53:27;11.73;;;4.53;;
74945;SDS011;63509;45.250;38.102;2023-09-19T00:55:56;6.97;;;3.95;;
74945;SDS011;63509;45.250;38.102;2023-09-19T00:58:23;7.38;;;4.55;;
74945;SDS011;63509;45.250;38.102;2023-09-19T01:00:49;5.93;;;3.78;;
74945;SDS011;63509;45.250;38.102;2023-09-19T01:03:17;10.48;;;5.35;;
74945;SDS011;63509;45.250;38.102;2023-09-19T01:05:43;8.00;;;4.03;;
74945;SDS011;63509;45.250;38.102;2023-09-19T01:08:10;11.13;;;4.28;;
74945;SDS011;63509;45.250;38.102;2023-09-19T01:10:38;11.43;;;4.43;;
74945;SDS011;63509;45.250;38.102;2023-09-19T01:16:05;11.50;;;3.97;;
74945;SDS011;63509;45.250;38.102;2023-09-19T01:18:50;9.32;;;4.53;;
74945;SDS011;63509;45.250;38.102;2023-09-19T01:21:29;7.55;;;4.25;;
74945;SDS011;63509;45.250;38.102;2023-09-19T01:29:42;6.10;;;3.72;;
74945;SDS011;63509;45.250;38.102;2023-09-19T01:32:11;6.85;;;4.18;;
74945;SDS011;63509;45.250;38.102;2023-09-19T01:37:14;7.72;;;4.38;;
74945;SDS011;63509;45.250;38.102;2023-09-19T01:39:49;10.90;;;4.15;;
74945;SDS011;63509;45.250;38.102;2023-09-19T01:42:40;11.40;;;4.80;;
74945;SDS011;63509;45.250;38.102;2023-09-19T01:45:26;11.25;;;4.25;;
74945;SDS011;63509;45.250;38.102;2023-09-19T01:51:02;18.80;;;8.55;;
74945;SDS011;63509;45.250;38.102;2023-09-19T01:53:41;17.05;;;7.70;;
74945;SDS011;63509;45.250;38.102;2023-09-19T01:56:12;14.80;;;7.70;;
74945;SDS011;63509;45.250;38.102;2023-09-19T01:58:48;11.70;;;6.53;;
74945;SDS011;63509;45.250;38.102;2023-09-19T02:01:19;14.00;;;5.82;;
74945;SDS011;63509;45.250;38.102;2023-09-19T02:03:47;12.35;;;5.47;;
74945;SDS011;63509;45.250;38.102;2023-09-19T02:06:16;13.40;;;5.70;;
74945;SDS011;63509;45.250;38.102;2023-09-19T02:08:44;11.50;;;5.60;;
74945;SDS011;63509;45.250;38.102;2023-09-19T02:11:11;8.27;;;5.05;;
74945;SDS011;63509;45.250;38.102;2023-09-19T02:16:06;8.20;;;4.45;;
74945;SDS011;63509;45.250;38.102;2023-09-19T02:18:34;13.07;;;6.03;;
74945;SDS011;63509;45.250;38.102;2023-09-19T02:21:02;12.68;;;5.50;;
74945;SDS011;63509;45.250;38.102;2023-09-19T02:23:30;9.85;;;4.85;;
74945;SDS011;63509;45.250;38.102;2023-09-19T02:25:59;9.02;;;5.22;;
74945;SDS011;63509;45.250;38.102;2023-09-19T02:28:29;8.70;;;5.40;;
74945;SDS011;63509;45.250;38.102;2023-09-19T02:30:57;9.07;;;5.07;;
74945;SDS011;63509;45.250;38.102;2023-09-19T02:33:24;10.70;;;5.35;;
74945;SDS011;63509;45.250;38.102;2023-09-19T02:35:55;10.40;;;4.63;;
74945;SDS011;63509;45.250;38.102;2023-09-19T02:38:27;11.60;;;4.72;;
74945;SDS011;63509;45.250;38.102;2023-09-19T02:40:54;11.57;;;6.53;;
74945;SDS011;63509;45.250;38.102;2023-09-19T02:43:21;11.25;;;5.15;;
74945;SDS011;63509;45.250;38.102;2023-09-19T02:45:48;7.45;;;5.32;;
74945;SDS011;63509;45.250;38.102;2023-09-19T02:48:15;13.00;;;4.95;;
74945;SDS011;63509;45.250;38.102;2023-09-19T02:50:42;12.10;;;4.53;;
74945;SDS011;63509;45.250;38.102;2023-09-19T02:53:10;8.98;;;4.93;;
74945;SDS011;63509;45.250;38.102;2023-09-19T02:55:38;8.13;;;5.32;;
74945;SDS011;63509;45.250;38.102;2023-09-19T02:58:06;8.05;;;5.00;;
74945;SDS011;63509;45.250;38.102;2023-09-19T03:00:40;7.00;;;4.63;;
74945;SDS011;63509;45.250;38.102;2023-09-19T03:03:13;15.77;;;6.32;;
74945;SDS011;63509;45.250;38.102;2023-09-19T03:05:41;14.25;;;6.03;;
74945;SDS011;63509;45.250;38.102;2023-09-19T03:08:13;14.68;;;7.18;;
74945;SDS011;63509;45.250;38.102;2023-09-19T03:10:45;12.02;;;6.30;;
74945;SDS011;63509;45.250;38.102;2023-09-19T03:13:13;11.18;;;5.75;;
74945;SDS011;63509;45.250;38.102;2023-09-19T03:15:41;16.98;;;6.30;;
74945;SDS011;63509;45.250;38.102;2023-09-19T03:18:11;10.75;;;7.00;;
74945;SDS011;63509;45.250;38.102;2023-09-19T03:20:39;9.45;;;5.90;;
74945;SDS011;63509;45.250;38.102;2023-09-19T03:23:05;12.77;;;5.88;;
74945;SDS011;63509;45.250;38.102;2023-09-19T03:25:33;11.48;;;6.20;;
74945;SDS011;63509;45.250;38.102;2023-09-19T03:28:02;10.07;;;5.13;;
74945;SDS011;63509;45.250;38.102;2023-09-19T03:30:32;9.68;;;6.63;;
74945;SDS011;63509;45.250;38.102;2023-09-19T03:33:01;14.07;;;7.00;;
74945;SDS011;63509;45.250;38.102;2023-09-19T03:35:29;11.63;;;7.18;;
74945;SDS011;63509;45.250;38.102;2023-09-19T03:37:55;16.88;;;7.40;;
74945;SDS011;63509;45.250;38.102;2023-09-19T03:40:23;16.80;;;8.52;;
74945;SDS011;63509;45.250;38.102;2023-09-19T03:42:52;23.05;;;8.20;;
74945;SDS011;63509;45.250;38.102;2023-09-19T03:45:19;20.10;;;8.48;;
74945;SDS011;63509;45.250;38.102;2023-09-19T03:47:50;15.60;;;7.72;;
74945;SDS011;63509;45.250;38.102;2023-09-19T03:50:19;15.80;;;7.68;;
74945;SDS011;63509;45.250;38.102;2023-09-19T03:52:46;16.25;;;8.18;;
74945;SDS011;63509;45.250;38.102;2023-09-19T03:55:12;13.77;;;6.55;;
74945;SDS011;63509;45.250;38.102;2023-09-19T03:57:40;11.32;;;6.03;;
74945;SDS011;63509;45.250;38.102;2023-09-19T04:00:07;15.77;;;6.50;;
74945;SDS011;63509;45.250;38.102;2023-09-19T04:02:41;9.98;;;6.22;;
74945;SDS011;63509;45.250;38.102;2023-09-19T04:05:08;11.98;;;4.57;;
74945;SDS011;63509;45.250;38.102;2023-09-19T04:07:35;13.93;;;5.10;;
74945;SDS011;63509;45.250;38.102;2023-09-19T04:10:01;8.27;;;5.43;;
74945;SDS011;63509;45.250;38.102;2023-09-19T04:12:29;11.00;;;5.18;;
74945;SDS011;63509;45.250;38.102;2023-09-19T04:14:55;11.32;;;5.03;;
74945;SDS011;63509;45.250;38.102;2023-09-19T04:17:21;9.45;;;5.22;;
74945;SDS011;63509;45.250;38.102;2023-09-19T04:19:49;16.70;;;5.25;;
74945;SDS011;63509;45.250;38.102;2023-09-19T04:22:15;8.07;;;5.07;;
74945;SDS011;63509;45.250;38.102;2023-09-19T04:24:41;13.93;;;5.47;;
74945;SDS011;63509;45.250;38.102;2023-09-19T04:27:08;10.30;;;5.50;;
74945;SDS011;63509;45.250;38.102;2023-09-19T04:29:35;16.13;;;5.53;;
74945;SDS011;63509;45.250;38.102;2023-09-19T04:32:03;9.73;;;5.28;;
74945;SDS011;63509;45.250;38.102;2023-09-19T04:34:29;12.20;;;5.50;;
74945;SDS011;63509;45.250;38.102;2023-09-19T04:36:56;7.85;;;5.60;;
74945;SDS011;63509;45.250;38.102;2023-09-19T04:39:26;11.18;;;4.97;;
74945;SDS011;63509;45.250;38.102;2023-09-19T04:41:52;9.25;;;6.13;;
74945;SDS011;63509;45.250;38.102;2023-09-19T04:44:18;15.50;;;5.70;;
74945;SDS011;63509;45.250;38.102;2023-09-19T04:46:45;9.52;;;5.80;;
74945;SDS011;63509;45.250;38.102;2023-09-19T04:49:14;16.13;;;5.85;;
74945;SDS011;63509;45.250;38.102;2023-09-19T04:51:40;11.32;;;6.25;;
74945;SDS011;63509;45.250;38.102;2023-09-19T04:54:06;13.10;;;5.95;;
74945;SDS011;63509;45.250;38.102;2023-09-19T04:56:32;11.45;;;6.32;;
74945;SDS011;63509;45.250;38.102;2023-09-19T04:58:59;9.75;;;5.20;;
74945;SDS011;63509;45.250;38.102;2023-09-19T05:01:26;11.75;;;4.97;;
74945;SDS011;63509;45.250;38.102;2023-09-19T05:03:53;18.80;;;5.43;;
74945;SDS011;63509;45.250;38.102;2023-09-19T05:06:19;17.60;;;6.60;;
74945;SDS011;63509;45.250;38.102;2023-09-19T05:08:53;25.50;;;8.10;;
74945;SDS011;63509;45.250;38.102;2023-09-19T05:11:21;13.93;;;6.32;;
74945;SDS011;63509;45.250;38.102;2023-09-19T05:13:48;18.80;;;6.13;;
74945;SDS011;63509;45.250;38.102;2023-09-19T05:16:21;15.00;;;6.03;;
74945;SDS011;63509;45.250;38.102;2023-09-19T05:18:47;14.68;;;6.43;;
74945;SDS011;63509;45.250;38.102;2023-09-19T05:21:15;11.95;;;5.97;;
74945;SDS011;63509;45.250;38.102;2023-09-19T05:23:41;14.00;;;5.47;;
74945;SDS011;63509;45.250;38.102;2023-09-19T05:26:07;16.92;;;5.57;;
74945;SDS011;63509;45.250;38.102;2023-09-19T05:28:33;14.02;;;5.43;;
74945;SDS011;63509;45.250;38.102;2023-09-19T05:31:00;10.70;;;4.70;;
74945;SDS011;63509;45.250;38.102;2023-09-19T05:33:32;10.52;;;5.20;;
74945;SDS011;63509;45.250;38.102;2023-09-19T05:35:58;13.82;;;5.10;;
74945;SDS011;63509;45.250;38.102;2023-09-19T05:38:25;8.07;;;4.15;;
74945;SDS011;63509;45.250;38.102;2023-09-19T05:40:52;18.23;;;4.65;;
74945;SDS011;63509;45.250;38.102;2023-09-19T05:43:19;8.75;;;3.60;;
74945;SDS011;63509;45.250;38.102;2023-09-19T05:45:45;9.70;;;4.78;;
74945;SDS011;63509;45.250;38.102;2023-09-19T05:48:12;8.35;;;4.00;;
74945;SDS011;63509;45.250;38.102;2023-09-19T05:50:41;10.85;;;3.78;;
74945;SDS011;63509;45.250;38.102;2023-09-19T05:53:08;11.48;;;4.72;;
74945;SDS011;63509;45.250;38.102;2023-09-19T05:55:37;11.55;;;4.22;;
74945;SDS011;63509;45.250;38.102;2023-09-19T05:58:04;11.18;;;3.70;;
74945;SDS011;63509;45.250;38.102;2023-09-19T06:00:30;9.00;;;3.78;;
74945;SDS011;63509;45.250;38.102;2023-09-19T06:02:57;8.13;;;4.00;;
74945;SDS011;63509;45.250;38.102;2023-09-19T06:05:27;9.77;;;3.90;;
74945;SDS011;63509;45.250;38.102;2023-09-19T06:07:55;13.80;;;3.35;;
74945;SDS011;63509;45.250;38.102;2023-09-19T06:10:25;8.18;;;3.05;;
74945;SDS011;63509;45.250;38.102;2023-09-19T06:15:20;14.43;;;3.80;;
74945;SDS011;63509;45.250;38.102;2023-09-19T06:17:53;7.75;;;3.40;;
74945;SDS011;63509;45.250;38.102;2023-09-19T06:20:20;8.27;;;3.38;;
74945;SDS011;63509;45.250;38.102;2023-09-19T06:22:48;8.48;;;2.80;;
74945;SDS011;63509;45.250;38.102;2023-09-19T06:25:15;9.73;;;2.75;;
74945;SDS011;63509;45.250;38.102;2023-09-19T06:27:45;10.48;;;3.17;;
74945;SDS011;63509;45.250;38.102;2023-09-19T06:30:12;8.43;;;3.05;;
74945;SDS011;63509;45.250;38.102;2023-09-19T06:32:39;5.40;;;2.80;;
74945;SDS011;63509;45.250;38.102;2023-09-19T06:35:12;5.35;;;2.00;;
74945;SDS011;63509;45.250;38.102;2023-09-19T06:37:40;8.48;;;2.53;;
74945;SDS011;63509;45.250;38.102;2023-09-19T06:40:08;10.80;;;2.40;;
74945;SDS011;63509;45.250;38.102;2023-09-19T06:42:40;9.00;;;2.60;;
74945;SDS011;63509;45.250;38.102;2023-09-19T06:45:08;8.88;;;2.78;;
74945;SDS011;63509;45.250;38.102;2023-09-19T06:47:37;7.45;;;2.60;;
74945;SDS011;63509;45.250;38.102;2023-09-19T06:50:03;11.35;;;3.05;;
74945;SDS011;63509;45.250;38.102;2023-09-19T06:52:31;8.07;;;2.65;;
74945;SDS011;63509;45.250;38.102;2023-09-19T06:54:58;9.88;;;2.53;;
74945;SDS011;63509;45.250;38.102;2023-09-19T06:57:24;3.90;;;1.98;;
74945;SDS011;63509;45.250;38.102;2023-09-19T06:59:51;4.43;;;2.00;;
74945;SDS011;63509;45.250;38.102;2023-09-19T07:02:17;4.43;;;2.28;;
74945;SDS011;63509;45.250;38.102;2023-09-19T07:04:44;7.50;;;2.47;;
74945;SDS011;63509;45.250;38.102;2023-09-19T07:07:11;10.63;;;2.83;;
74945;SDS011;63509;45.250;38.102;2023-09-19T07:09:40;8.15;;;2.35;;
74945;SDS011;63509;45.250;38.102;2023-09-19T07:14:33;16.13;;;2.78;;
74945;SDS011;63509;45.250;38.102;2023-09-19T07:17:00;9.27;;;2.60;;
74945;SDS011;63509;45.250;38.102;2023-09-19T07:19:27;10.80;;;2.55;;
74945;SDS011;63509;45.250;38.102;2023-09-19T07:21:56;7.40;;;2.00;;
74945;SDS011;63509;45.250;38.102;2023-09-19T07:26:52;23.27;;;2.78;;
74945;SDS011;63509;45.250;38.102;2023-09-19T07:29:19;5.75;;;2.10;;
74945;SDS011;63509;45.250;38.102;2023-09-19T07:31:45;5.38;;;2.15;;
74945;SDS011;63509;45.250;38.102;2023-09-19T07:34:12;6.78;;;1.90;;
74945;SDS011;63509;45.250;38.102;2023-09-19T07:36:39;9.88;;;2.45;;
74945;SDS011;63509;45.250;38.102;2023-09-19T07:39:07;4.50;;;2.13;;
74945;SDS011;63509;45.250;38.102;2023-09-19T07:41:34;6.72;;;1.98;;
74945;SDS011;63509;45.250;38.102;2023-09-19T07:44:00;9.82;;;2.38;;
74945;SDS011;63509;45.250;38.102;2023-09-19T07:46:26;16.08;;;2.97;;
74945;SDS011;63509;45.250;38.102;2023-09-19T07:48:53;4.63;;;2.42;;
74945;SDS011;63509;45.250;38.102;2023-09-19T07:51:19;13.25;;;2.47;;
74945;SDS011;63509;45.250;38.102;2023-09-19T07:53:46;7.43;;;2.45;;
74945;SDS011;63509;45.250;38.102;2023-09-19T07:56:14;11.88;;;3.55;;
74945;SDS011;63509;45.250;38.102;2023-09-19T07:58:41;6.85;;;2.40;;
74945;SDS011;63509;45.250;38.102;2023-09-19T08:01:09;5.07;;;1.83;;
74945;SDS011;63509;45.250;38.102;2023-09-19T08:03:39;9.02;;;2.38;;
74945;SDS011;63509;45.250;38.102;2023-09-19T08:06:09;12.50;;;2.35;;
74945;SDS011;63509;45.250;38.102;2023-09-19T08:08:36;14.20;;;2.30;;
74945;SDS011;63509;45.250;38.102;2023-09-19T08:11:04;10.95;;;2.70;;
74945;SDS011;63509;45.250;38.102;2023-09-19T08:13:39;5.32;;;2.05;;
74945;SDS011;63509;45.250;38.102;2023-09-19T08:16:14;7.85;;;2.22;;
74945;SDS011;63509;45.250;38.102;2023-09-19T08:18:41;12.75;;;2.55;;
74945;SDS011;63509;45.250;38.102;2023-09-19T08:21:11;4.15;;;2.10;;
74945;SDS011;63509;45.250;38.102;2023-09-19T08:23:37;7.65;;;2.15;;
74945;SDS011;63509;45.250;38.102;2023-09-19T08:26:04;5.13;;;2.10;;
74945;SDS011;63509;45.250;38.102;2023-09-19T08:28:34;7.25;;;2.20;;
74945;SDS011;63509;45.250;38.102;2023-09-19T08:31:02;8.23;;;2.03;;
74945;SDS011;63509;45.250;38.102;2023-09-19T08:33:33;8.93;;;2.70;;
74945;SDS011;63509;45.250;38.102;2023-09-19T08:36:03;3.80;;;1.70;;
74945;SDS011;63509;45.250;38.102;2023-09-19T08:41:05;5.00;;;1.90;;
74945;SDS011;63509;45.250;38.102;2023-09-19T08:43:34;16.42;;;2.47;;
74945;SDS011;63509;45.250;38.102;2023-09-19T08:46:10;16.63;;;2.78;;
74945;SDS011;63509;45.250;38.102;2023-09-19T08:48:46;6.85;;;2.83;;
74945;SDS011;63509;45.250;38.102;2023-09-19T08:54:27;11.75;;;3.17;;
74945;SDS011;63509;45.250;38.102;2023-09-19T08:56:57;7.43;;;1.60;;
74945;SDS011;63509;45.250;38.102;2023-09-19T08:59:33;19.35;;;2.08;;
74945;SDS011;63509;45.250;38.102;2023-09-19T09:02:01;12.63;;;1.73;;
74945;SDS011;63509;45.250;38.102;2023-09-19T09:04:30;20.85;;;2.45;;
74945;SDS011;63509;45.250;38.102;2023-09-19T09:07:00;5.95;;;1.85;;
74945;SDS011;63509;45.250;38.102;2023-09-19T09:09:29;6.90;;;1.90;;
74945;SDS011;63509;45.250;38.102;2023-09-19T09:11:55;7.65;;;1.90;;
74945;SDS011;63509;45.250;38.102;2023-09-19T09:14:24;21.83;;;3.22;;
74945;SDS011;63509;45.250;38.102;2023-09-19T09:16:51;10.43;;;1.90;;
74945;SDS011;63509;45.250;38.102;2023-09-19T09:19:22;7.68;;;1.73;;
74945;SDS011;63509;45.250;38.102;2023-09-19T09:21:50;8.30;;;2.15;;
74945;SDS011;63509;45.250;38.102;2023-09-19T09:24:30;16.52;;;2.08;;
74945;SDS011;63509;45.250;38.102;2023-09-19T09:27:00;15.63;;;2.13;;
74945;SDS011;63509;45.250;38.102;2023-09-19T09:29:43;3.22;;;1.45;;
74945;SDS011;63509;45.250;38.102;2023-09-19T09:32:33;13.40;;;1.88;;
74945;SDS011;63509;45.250;38.102;2023-09-19T09:35:07;7.47;;;2.17;;
74945;SDS011;63509;45.250;38.102;2023-09-19T09:37:40;3.90;;;1.30;;
74945;SDS011;63509;45.250;38.102;2023-09-19T09:40:09;4.30;;;1.80;;
74945;SDS011;63509;45.250;38.102;2023-09-19T09:42:41;3.50;;;1.58;;
74945;SDS011;63509;45.250;38.102;2023-09-19T09:45:12;3.47;;;1.45;;
74945;SDS011;63509;45.250;38.102;2023-09-19T09:48:03;3.67;;;1.50;;
74945;SDS011;63509;45.250;38.102;2023-09-19T09:50:46;7.88;;;1.80;;
74945;SDS011;63509;45.250;38.102;2023-09-19T09:53:24;6.15;;;1.52;;
74945;SDS011;63509;45.250;38.102;2023-09-19T09:55:59;6.03;;;2.05;;
74945;SDS011;63509;45.250;38.102;2023-09-19T09:58:36;6.57;;;1.63;;
74945;SDS011;63509;45.250;38.102;2023-09-19T10:01:07;4.60;;;1.65;;
74945;SDS011;63509;45.250;38.102;2023-09-19T10:03:40;5.63;;;1.90;;
74945;SDS011;63509;45.250;38.102;2023-09-19T10:06:17;7.35;;;1.73;;
74945;SDS011;63509;45.250;38.102;2023-09-19T10:11:34;8.73;;;1.65;;
74945;SDS011;63509;45.250;38.102;2023-09-19T10:14:05;10.85;;;1.83;;
74945;SDS011;63509;45.250;38.102;2023-09-19T10:16:34;5.88;;;1.48;;
74945;SDS011;63509;45.250;38.102;2023-09-19T10:19:09;5.03;;;1.88;;
74945;SDS011;63509;45.250;38.102;2023-09-19T10:21:41;7.15;;;1.80;;
74945;SDS011;63509;45.250;38.102;2023-09-19T10:24:08;5.40;;;1.38;;
74945;SDS011;63509;45.250;38.102;2023-09-19T10:26:36;4.57;;;1.65;;
74945;SDS011;63509;45.250;38.102;2023-09-19T10:29:06;3.00;;;1.48;;
74945;SDS011;63509;45.250;38.102;2023-09-19T10:31:35;5.53;;;1.77;;
74945;SDS011;63509;45.250;38.102;2023-09-19T10:34:06;12.02;;;1.55;;
74945;SDS011;63509;45.250;38.102;2023-09-19T10:36:35;8.63;;;1.50;;
74945;SDS011;63509;45.250;38.102;2023-09-19T10:39:04;12.98;;;1.90;;
74945;SDS011;63509;45.250;38.102;2023-09-19T10:41:32;4.90;;;1.58;;
74945;SDS011;63509;45.250;38.102;2023-09-19T10:44:02;15.95;;;2.72;;
74945;SDS011;63509;45.250;38.102;2023-09-19T10:46:32;10.75;;;1.83;;
74945;SDS011;63509;45.250;38.102;2023-09-19T10:49:02;2.85;;;1.40;;
74945;SDS011;63509;45.250;38.102;2023-09-19T10:51:33;4.05;;;1.20;;
74945;SDS011;63509;45.250;38.102;2023-09-19T10:54:08;5.93;;;1.48;;
74945;SDS011;63509;45.250;38.102;2023-09-19T10:56:48;6.20;;;1.70;;
74945;SDS011;63509;45.250;38.102;2023-09-19T10:59:18;6.07;;;1.65;;
74945;SDS011;63509;45.250;38.102;2023-09-19T11:01:53;4.38;;;1.30;;
74945;SDS011;63509;45.250;38.102;2023-09-19T11:07:01;5.88;;;1.55;;
74945;SDS011;63509;45.250;38.102;2023-09-19T11:09:49;6.78;;;1.55;;
74945;SDS011;63509;45.250;38.102;2023-09-19T11:14:58;5.07;;;2.42;;
74945;SDS011;63509;45.250;38.102;2023-09-19T11:17:35;5.75;;;1.60;;
74945;SDS011;63509;45.250;38.102;2023-09-19T11:30:45;5.45;;;1.58;;
74945;SDS011;63509;45.250;38.102;2023-09-19T11:33:19;3.55;;;1.58;;
74945;SDS011;63509;45.250;38.102;2023-09-19T11:36:08;6.05;;;1.60;;
74945;SDS011;63509;45.250;38.102;2023-09-19T11:44:30;5.65;;;1.73;;
74945;SDS011;63509;45.250;38.102;2023-09-19T11:49:18;10.05;;;1.58;;
74945;SDS011;63509;45.250;38.102;2023-09-19T11:51:51;10.55;;;1.77;;
74945;SDS011;63509;45.250;38.102;2023-09-19T11:54:19;6.75;;;1.90;;
74945;SDS011;63509;45.250;38.102;2023-09-19T11:56:52;6.35;;;2.10;;
74945;SDS011;63509;45.250;38.102;2023-09-19T11:59:21;6.05;;;1.75;;
74945;SDS011;63509;45.250;38.102;2023-09-19T12:01:52;5.30;;;1.27;;
74945;SDS011;63509;45.250;38.102;2023-09-19T12:04:38;5.05;;;2.13;;
74945;SDS011;63509;45.250;38.102;2023-09-19T12:07:15;5.63;;;1.33;;
74945;SDS011;63509;45.250;38.102;2023-09-19T12:09:46;4.57;;;1.33;;
74945;SDS011;63509;45.250;38.102;2023-09-19T12:12:19;4.10;;;1.58;;
74945;SDS011;63509;45.250;38.102;2023-09-19T12:14:48;9.82;;;2.08;;
74945;SDS011;63509;45.250;38.102;2023-09-19T12:17:15;7.53;;;1.48;;
74945;SDS011;63509;45.250;38.102;2023-09-19T12:19:51;7.07;;;1.55;;
74945;SDS011;63509;45.250;38.102;2023-09-19T12:22:24;3.05;;;1.30;;
74945;SDS011;63509;45.250;38.102;2023-09-19T12:24:50;8.32;;;2.15;;
74945;SDS011;63509;45.250;38.102;2023-09-19T12:27:20;8.93;;;2.03;;
74945;SDS011;63509;45.250;38.102;2023-09-19T12:29:47;4.88;;;1.30;;
74945;SDS011;63509;45.250;38.102;2023-09-19T12:32:33;2.75;;;1.13;;
74945;SDS011;63509;45.250;38.102;2023-09-19T12:35:00;9.27;;;1.40;;
74945;SDS011;63509;45.250;38.102;2023-09-19T12:37:32;7.95;;;2.35;;
74945;SDS011;63509;45.250;38.102;2023-09-19T12:40:08;8.27;;;3.38;;
74945;SDS011;63509;45.250;38.102;2023-09-19T12:42:47;8.88;;;3.50;;
74945;SDS011;63509;45.250;38.102;2023-09-19T12:45:15;7.03;;;2.88;;
74945;SDS011;63509;45.250;38.102;2023-09-19T12:51:07;5.50;;;1.40;;
74945;SDS011;63509;45.250;38.102;2023-09-19T12:53:45;6.55;;;2.03;;
74945;SDS011;63509;45.250;38.102;2023-09-19T12:56:15;4.43;;;2.30;;
74945;SDS011;63509;45.250;38.102;2023-09-19T12:58:50;9.00;;;1.90;;
74945;SDS011;63509;45.250;38.102;2023-09-19T13:01:20;3.05;;;1.50;;
74945;SDS011;63509;45.250;38.102;2023-09-19T13:06:48;15.18;;;5.30;;
74945;SDS011;63509;45.250;38.102;2023-09-19T13:09:15;8.57;;;3.78;;
74945;SDS011;63509;45.250;38.102;2023-09-19T13:11:46;5.63;;;1.60;;
74945;SDS011;63509;45.250;38.102;2023-09-19T13:14:18;9.38;;;2.15;;
74945;SDS011;63509;45.250;38.102;2023-09-19T13:16:54;8.02;;;1.73;;
74945;SDS011;63509;45.250;38.102;2023-09-19T13:19:45;5.05;;;1.80;;
74945;SDS011;63509;45.250;38.102;2023-09-19T13:25:15;9.38;;;2.15;;
74945;SDS011;63509;45.250;38.102;2023-09-19T13:27:46;8.52;;;2.08;;
74945;SDS011;63509;45.250;38.102;2023-09-19T13:30:14;2.50;;;1.15;;
74945;SDS011;63509;45.250;38.102;2023-09-19T13:32:41;5.82;;;1.45;;
74945;SDS011;63509;45.250;38.102;2023-09-19T13:35:08;8.43;;;1.67;;
74945;SDS011;63509;45.250;38.102;2023-09-19T13:37:34;3.95;;;1.50;;
74945;SDS011;63509;45.250;38.102;2023-09-19T13:40:04;6.22;;;1.73;;
74945;SDS011;63509;45.250;38.102;2023-09-19T13:42:31;4.75;;;1.73;;
74945;SDS011;63509;45.250;38.102;2023-09-19T13:44:57;7.00;;;1.75;;
74945;SDS011;63509;45.250;38.102;2023-09-19T13:47:24;10.45;;;1.60;;
74945;SDS011;63509;45.250;38.102;2023-09-19T13:52:21;3.97;;;1.20;;
74945;SDS011;63509;45.250;38.102;2023-09-19T13:54:50;9.82;;;1.70;;
74945;SDS011;63509;45.250;38.102;2023-09-19T13:57:18;10.45;;;1.70;;
74945;SDS011;63509;45.250;38.102;2023-09-19T13:59:44;5.20;;;1.65;;
74945;SDS011;63509;45.250;38.102;2023-09-19T14:02:10;6.88;;;1.67;;
74945;SDS011;63509;45.250;38.102;2023-09-19T14:04:37;4.70;;;2.20;;
74945;SDS011;63509;45.250;38.102;2023-09-19T14:07:03;7.35;;;1.80;;
74945;SDS011;63509;45.250;38.102;2023-09-19T14:09:29;3.83;;;1.50;;
74945;SDS011;63509;45.250;38.102;2023-09-19T14:11:55;3.65;;;1.35;;
74945;SDS011;63509;45.250;38.102;2023-09-19T14:14:22;6.00;;;1.92;;
74945;SDS011;63509;45.250;38.102;2023-09-19T14:16:48;5.47;;;2.25;;
74945;SDS011;63509;45.250;38.102;2023-09-19T14:19:15;6.97;;;1.80;;
74945;SDS011;63509;45.250;38.102;2023-09-19T14:21:42;8.40;;;1.60;;
74945;SDS011;63509;45.250;38.102;2023-09-19T14:24:08;9.07;;;1.38;;
74945;SDS011;63509;45.250;38.102;2023-09-19T14:26:38;4.88;;;1.70;;
74945;SDS011;63509;45.250;38.102;2023-09-19T14:29:05;6.68;;;1.60;;
74945;SDS011;63509;45.250;38.102;2023-09-19T14:31:33;6.93;;;1.85;;
74945;SDS011;63509;45.250;38.102;2023-09-19T14:34:00;3.47;;;1.42;;
74945;SDS011;63509;45.250;38.102;2023-09-19T14:36:27;8.02;;;2.33;;
74945;SDS011;63509;45.250;38.102;2023-09-19T14:38:54;6.80;;;2.25;;
74945;SDS011;63509;45.250;38.102;2023-09-19T14:41:22;10.73;;;2.15;;
74945;SDS011;63509;45.250;38.102;2023-09-19T14:43:51;8.35;;;2.00;;
74945;SDS011;63509;45.250;38.102;2023-09-19T14:46:18;9.70;;;2.60;;
74945;SDS011;63509;45.250;38.102;2023-09-19T14:48:45;5.07;;;2.30;;
74945;SDS011;63509;45.250;38.102;2023-09-19T14:51:13;8.18;;;2.33;;
74945;SDS011;63509;45.250;38.102;2023-09-19T14:53:40;8.88;;;1.83;;
74945;SDS011;63509;45.250;38.102;2023-09-19T14:56:07;12.05;;;1.65;;
74945;SDS011;63509;45.250;38.102;2023-09-19T14:58:35;4.47;;;1.60;;
74945;SDS011;63509;45.250;38.102;2023-09-19T15:01:05;6.50;;;2.20;;
74945;SDS011;63509;45.250;38.102;2023-09-19T15:03:33;4.13;;;2.00;;
74945;SDS011;63509;45.250;38.102;2023-09-19T15:06:03;7.95;;;1.98;;
74945;SDS011;63509;45.250;38.102;2023-09-19T15:08:31;8.75;;;2.50;;
74945;SDS011;63509;45.250;38.102;2023-09-19T15:11:01;4.68;;;1.63;;
74945;SDS011;63509;45.250;38.102;2023-09-19T15:13:31;8.00;;;2.50;;
74945;SDS011;63509;45.250;38.102;2023-09-19T15:15:58;10.75;;;2.60;;
74945;SDS011;63509;45.250;38.102;2023-09-19T15:18:29;7.47;;;2.42;;
74945;SDS011;63509;45.250;38.102;2023-09-19T15:21:03;11.65;;;2.80;;
74945;SDS011;63509;45.250;38.102;2023-09-19T15:23:30;56.05;;;6.47;;
74945;SDS011;63509;45.250;38.102;2023-09-19T15:25:57;13.23;;;3.08;;
74945;SDS011;63509;45.250;38.102;2023-09-19T15:28:24;10.05;;;2.95;;
74945;SDS011;63509;45.250;38.102;2023-09-19T15:30:50;5.50;;;3.17;;
74945;SDS011;63509;45.250;38.102;2023-09-19T15:33:22;14.10;;;5.05;;
74945;SDS011;63509;45.250;38.102;2023-09-19T15:35:48;15.40;;;3.97;;
74945;SDS011;63509;45.250;38.102;2023-09-19T15:38:15;11.38;;;3.58;;
74945;SDS011;63509;45.250;38.102;2023-09-19T15:40:47;11.02;;;2.92;;
74945;SDS011;63509;45.250;38.102;2023-09-19T15:43:13;9.40;;;3.03;;
74945;SDS011;63509;45.250;38.102;2023-09-19T15:45:43;13.93;;;3.05;;
74945;SDS011;63509;45.250;38.102;2023-09-19T15:48:13;18.40;;;4.00;;
74945;SDS011;63509;45.250;38.102;2023-09-19T15:50:40;18.48;;;4.00;;